Flight Track Log - Related Links

Times and Time Zones

All times are in EDT time to prevent confusion due to time zone crossing. See the SWA2975 flight status page for this flight to view local times or setup timezone preferences in your user account.

Time Position Orientation Groundspeed Altitude Reporting Facility
EDT Latitude Longitude Course Direction KTS MPH feet Rate Location/Type
Sun 11:02:23 PM 41.7690 -87.7770 248° West 152 175 2,200  Level FlightAware ADS-B
Sun 11:02:33 PM 41.7680 -87.7860 262° West 165 190 2,400 800 Climbing FlightAware ADS-B
Sun 11:03:08 PM 41.7840 -87.8220 301° West 253 291 2,800 766 Climbing FlightAware ADS-B
Sun 11:03:20 PM 41.7980 -87.8300 337° Northwest 266 306 3,000 429 Climbing FlightAware ADS-B
Sun 11:03:36 PM 41.8180 -87.8300 360° North 259 298 3,000  Level FlightAware ADS-B
Sun 11:03:48 PM 41.8310 -87.8220 25° Northeast 251 289 3,000 429 Level FlightAware ADS-B
Sun 11:04:04 PM 41.8420 -87.8050 49° Northeast 250 288 3,200 1,000 Climbing FlightAware ADS-B
Sun 11:04:12 PM 41.8450 -87.7930 71° East 252 290 3,400 2,108 Climbing FlightAware ADS-B
Sun 11:04:41 PM 41.8490 -87.7450 84° East 275 316 4,500 1,714 Climbing FlightAware ADS-B
Sun 11:05:08 PM 41.8510 -87.7010 86° East 272 313 5,000 667 Climbing FlightAware ADS-B
Sun 11:05:26 PM 41.8530 -87.6690 85° East 282 325 5,000 -200 Level FlightAware ADS-B
Sun 11:05:38 PM 41.8540 -87.6480 86° East 284 327 4,900 286 Descending FlightAware ADS-B
Sun 11:06:08 PM 41.8570 -87.5950 86° East 288 331 5,200 1,385 Climbing FlightAware ADS-B
Sun 11:06:30 PM 41.8580 -87.5580 88° East 286 329 6,100 3,070 Climbing FlightAware ADS-B
Sun 11:06:51 PM 41.8550 -87.5220 96° East 282 325 7,400 3,600 Climbing FlightAware ADS-B
Sun 11:07:20 PM 41.8440 -87.4700 106° East 288 331 9,100 3,304 Climbing FlightAware ADS-B
Sun 11:08:00 PM 41.8300 -87.4000 105° East 299 344 11,200 3,185 Climbing FlightAware ADS-B
Sun 11:08:41 PM 41.8160 -87.3270 104° East 305 351 13,400 2,214 Climbing FlightAware ADS-B
Sun 11:09:24 PM 41.7980 -87.2420 106° East 359 413 14,300 1,773 Climbing FlightAware ADS-B
Sun 11:10:09 PM 41.7780 -87.1430 105° East 385 443 16,000 2,442 Climbing FlightAware ADS-B
Sun 11:10:50 PM 41.7630 -87.0400 101° East 399 459 17,800 2,530 Climbing FlightAware ADS-B
Sun 11:11:32 PM 41.7630 -86.9330 90° East 409 471 19,500 2,429 Climbing FlightAware ADS-B
Sun 11:12:14 PM 41.7650 -86.8260 89° East 416 479 21,200 2,357 Climbing FlightAware ADS-B
Sun 11:12:56 PM 41.7660 -86.7180 89° East 420 483 22,800 2,169 Climbing FlightAware ADS-B
Sun 11:13:37 PM 41.7670 -86.6130 89° East 426 490 24,200 1,902 Climbing FlightAware ADS-B
Sun 11:14:18 PM 41.7680 -86.5020 89° East 436 502 25,400 1,553 Climbing FlightAware ADS-B
Sun 11:15:02 PM 41.7680 -86.3810 90° East 449 517 26,400 1,412 Climbing FlightAware ADS-B
Sun 11:15:43 PM 41.7770 -86.2680 84° East 457 526 27,400 1,482 Climbing FlightAware ADS-B
Sun 11:16:27 PM 41.7980 -86.1470 77° East 462 532 28,500 1,500 Climbing FlightAware ADS-B
Sun 11:17:07 PM 41.8170 -86.0340 77° East 466 536 29,500 1,769 Climbing FlightAware ADS-B
Sun 11:17:45 PM 41.8350 -85.9300 77° East 460 529 30,800 1,807 Climbing FlightAware ADS-B
Sun 11:18:30 PM 41.8570 -85.8010 77° East 460 529 32,000 1,448 Climbing FlightAware ADS-B
Sun 11:19:12 PM 41.8760 -85.6870 77° East 460 529 32,900 1,373 Climbing FlightAware ADS-B
Sun 11:19:53 PM 41.8940 -85.5760 78° East 458 527 33,900 1,500 Climbing FlightAware ADS-B
Sun 11:20:36 PM 41.9150 -85.4530 77° East 453 521 35,000 786 Climbing FlightAware ADS-B
Sun 11:21:17 PM 41.9330 -85.3430 78° East 456 525 35,000 425 Level FlightAware ADS-B
Sun 11:22:29 PM 41.9510 -85.1400 83° East 460 529 35,800 716 Climbing FlightAware ADS-B
Sun 11:23:06 PM 41.9510 -85.0350 90° East 460 529 36,300 900 Climbing FlightAware ADS-B
Sun 11:23:49 PM 41.9500 -84.9150 91° East 456 525 37,000 462 Climbing FlightAware ADS-B
Sun 11:24:37 PM 41.9490 -84.7790 91° East 452 520 37,000  Level FlightAware ADS-B
Sun 11:25:11 PM 41.9490 -84.6840 90° East 452 520 37,000  Level FlightAware ADS-B
Sun 11:25:59 PM 41.9480 -84.5450 91° East 452 520 37,000  Level FlightAware ADS-B
Sun 11:26:44 PM 41.9470 -84.4230 91° East 447 514 37,000  Level FlightAware ADS-B
Sun 11:27:23 PM 41.9460 -84.3150 91° East 444 511 37,000  Level FlightAware ADS-B
Sun 11:28:07 PM 41.9450 -84.2000 91° East 444 511 37,000  Level FlightAware ADS-B
Sun 11:29:00 PM 41.9500 -84.0500 87° East 444 511 37,000  Level FlightAware ADS-B
Sun 11:29:42 PM 41.9640 -83.9370 81° East 443 510 37,000  Level FlightAware ADS-B
Sun 11:30:24 PM 41.9780 -83.8210 81° East 444 511 37,000  Level FlightAware ADS-B
Sun 11:31:10 PM 41.9930 -83.6960 81° East 444 511 37,000  Level FlightAware ADS-B
Sun 11:31:47 PM 42.0050 -83.5950 81° East 444 511 37,000  Level FlightAware ADS-B
Sun 11:32:32 PM 42.0200 -83.4740 80° East 442 509 37,000  Level FlightAware ADS-B
Sun 11:33:14 PM 42.0330 -83.3620 81° East 440 506 37,000  Level FlightAware ADS-B
Sun 11:33:58 PM 42.0470 -83.2420 81° East 440 506 37,000  Level FlightAware ADS-B
Sun 11:34:38 PM 42.0600 -83.1350 81° East 439 505 37,000  Level FlightAware ADS-B
Sun 11:35:22 PM 42.0730 -83.0160 82° East 438 504 37,000  Level FlightAware ADS-B
Sun 11:36:02 PM 42.0850 -82.9130 81° East 435 501 37,000  Level FlightAware ADS-B
Sun 11:36:46 PM 42.0970 -82.7930 82° East 431 496 37,000  Level FlightAware ADS-B
Sun 11:37:22 PM 42.1080 -82.6990 81° East 429 494 37,000  Level FlightAware ADS-B
Sun 11:38:10 PM 42.1230 -82.5710 81° East 428 493 37,000  Level FlightAware ADS-B
Sun 11:38:49 PM 42.1350 -82.4670 81° East 431 496 37,000  Level FlightAware ADS-B
Sun 11:39:30 PM 42.1470 -82.3590 81° East 431 496 37,000  Level FlightAware ADS-B
Sun 11:40:16 PM 42.1600 -82.2380 82° East 430 495 37,000  Level FlightAware ADS-B
Sun 11:40:56 PM 42.1710 -82.1310 82° East 430 495 37,000  Level FlightAware ADS-B
Sun 11:41:38 PM 42.1830 -82.0190 82° East 434 499 37,000  Level FlightAware ADS-B
Sun 11:42:14 PM 42.1930 -81.9200 82° East 436 502 37,000  Level FlightAware ADS-B
Sun 11:42:59 PM 42.2060 -81.8030 81° East 438 504 37,000  Level FlightAware ADS-B
Sun 11:43:42 PM 42.2180 -81.6830 82° East 444 511 37,000  Level FlightAware ADS-B
Sun 11:44:26 PM 42.2300 -81.5600 82° East 447 514 37,000  Level FlightAware ADS-B
Sun 11:45:08 PM 42.2420 -81.4440 82° East 447 514 37,000  Level FlightAware ADS-B
Sun 11:45:51 PM 42.2540 -81.3280 82° East 443 510 37,000  Level FlightAware ADS-B
Sun 11:46:32 PM 42.2650 -81.2140 83° East 442 509 37,000  Level FlightAware ADS-B
Sun 11:47:15 PM 42.2760 -81.1010 82° East 442 509 37,000  Level FlightAware ADS-B
Sun 11:47:57 PM 42.2870 -80.9840 83° East 441 507 37,000  Level FlightAware ADS-B
Sun 11:48:37 PM 42.2980 -80.8750 82° East 441 507 37,000  Level FlightAware ADS-B
Sun 11:49:22 PM 42.3090 -80.7510 83° East 440 506 37,000  Level FlightAware ADS-B
Sun 11:50:03 PM 42.3200 -80.6410 82° East 440 506 37,000  Level FlightAware ADS-B
Sun 11:50:47 PM 42.3310 -80.5220 83° East 439 505 37,000  Level FlightAware ADS-B
Sun 11:51:27 PM 42.3410 -80.4120 83° East 439 505 37,000  Level FlightAware ADS-B
Sun 11:52:09 PM 42.3510 -80.2990 83° East 438 504 37,000  Level FlightAware ADS-B
Sun 11:52:51 PM 42.3620 -80.1820 83° East 438 504 37,000  Level FlightAware ADS-B
Sun 11:53:31 PM 42.3710 -80.0750 83° East 438 504 37,000  Level FlightAware ADS-B
Sun 11:54:15 PM 42.3810 -79.9560 83° East 440 506 37,000  Level FlightAware ADS-B
Sun 11:54:55 PM 42.3910 -79.8470 83° East 441 507 37,000  Level FlightAware ADS-B
Sun 11:55:37 PM 42.4000 -79.7370 84° East 443 510 37,000  Level FlightAware ADS-B
Sun 11:56:22 PM 42.4110 -79.6100 83° East 445 512 37,000  Level FlightAware ADS-B
Sun 11:57:03 PM 42.4210 -79.4940 83° East 448 516 37,000  Level FlightAware ADS-B
Sun 11:57:47 PM 42.4310 -79.3730 84° East 448 516 37,000  Level FlightAware ADS-B
Sun 11:58:25 PM 42.4390 -79.2640 84° East 449 517 37,000  Level FlightAware ADS-B
Sun 11:59:11 PM 42.4500 -79.1360 83° East 447 514 37,000  Level FlightAware ADS-B
Sun 11:59:50 PM 42.4580 -79.0290 84° East 446 513 37,000  Level FlightAware ADS-B
Mon 12:00:31 AM 42.4670 -78.9160 84° East 446 513 37,000  Level FlightAware ADS-B
Mon 12:01:11 AM 42.4760 -78.8030 84° East 446 513 37,000  Level FlightAware ADS-B
Mon 12:01:59 AM 42.4860 -78.6700 84° East 447 514 37,000  Level FlightAware ADS-B
Mon 12:02:41 AM 42.4950 -78.5530 84° East 447 514 37,000  Level FlightAware ADS-B
Mon 12:03:19 AM 42.5030 -78.4480 84° East 448 516 37,000  Level FlightAware ADS-B
Mon 12:04:01 AM 42.5110 -78.3300 85° East 449 517 37,000  Level FlightAware ADS-B
Mon 12:04:43 AM 42.5200 -78.2110 84° East 450 518 37,000  Level FlightAware ADS-B
Mon 12:05:27 AM 42.5280 -78.0920 85° East 451 519 37,000  Level FlightAware ADS-B
Mon 12:06:03 AM 42.5350 -77.9890 85° East 451 519 37,000  Level FlightAware ADS-B
Mon 12:06:47 AM 42.5430 -77.8690 85° East 454 522 37,000  Level FlightAware ADS-B
Mon 12:07:31 AM 42.5520 -77.7390 85° East 455 524 37,000 -205 Level FlightAware ADS-B
Mon 12:08:15 AM 42.5610 -77.6130 84° East 455 524 36,700 -714 Descending FlightAware ADS-B
Mon 12:08:55 AM 42.5680 -77.5010 85° East 459 528 36,000 -951 Descending FlightAware ADS-B
Mon 12:09:37 AM 42.5760 -77.3790 85° East 464 534 35,400 -907 Descending FlightAware ADS-B
Mon 12:10:21 AM 42.5840 -77.2500 85° East 466 536 34,700 -988 Descending FlightAware ADS-B
Mon 12:11:02 AM 42.5910 -77.1360 85° East 466 536 34,000 -1,000 Descending FlightAware ADS-B
Mon 12:11:45 AM 42.5990 -77.0060 85° East 471 542 33,300 -966 Descending FlightAware ADS-B
Mon 12:12:29 AM 42.6070 -76.8750 85° East 476 548 32,600 -900 Descending FlightAware ADS-B
Mon 12:13:05 AM 42.6170 -76.7710 83° East 479 551 32,100 -951 Descending FlightAware ADS-B
Mon 12:13:51 AM 42.6500 -76.6410 71° East 475 547 31,300 -1,091 Descending FlightAware ADS-B
Mon 12:14:33 AM 42.6810 -76.5230 70° East 463 533 30,500 -1,047 Descending FlightAware ADS-B
Mon 12:15:17 AM 42.7110 -76.4050 71° East 457 526 29,800 -1,024 Descending FlightAware ADS-B
Mon 12:15:55 AM 42.7370 -76.3010 71° East 451 519 29,100 -585 Descending FlightAware ADS-B
Mon 12:16:39 AM 42.7670 -76.1830 71° East 451 519 29,000 -71 Descending FlightAware ADS-B
Mon 12:17:19 AM 42.7850 -76.0730 77° East 449 517 29,000  Level FlightAware ADS-B
Mon 12:17:59 AM 42.7990 -75.9600 80° East 449 517 29,000 -1,091 Level FlightAware ADS-B
Mon 12:18:47 AM 42.8150 -75.8320 80° East 439 505 27,400 -2,114 Descending FlightAware ADS-B
Mon 12:19:27 AM 42.8270 -75.7220 82° East 432 497 25,900 -2,308 Descending FlightAware ADS-B
Mon 12:20:05 AM 42.8390 -75.6190 81° East 425 489 24,400 -2,214 Descending FlightAware ADS-B
Mon 12:20:51 AM 42.8520 -75.5000 81° East 418 481 22,800 -2,182 Descending FlightAware ADS-B
Mon 12:21:33 AM 42.8640 -75.3910 81° East 413 475 21,200 -2,233 Descending FlightAware ADS-B
Mon 12:22:17 AM 42.8780 -75.2780 80° East 406 467 19,600 -1,829 Descending FlightAware ADS-B
Mon 12:22:55 AM 42.8860 -75.1830 83° East 395 455 18,700 -2,000 Descending FlightAware ADS-B
Mon 12:23:41 AM 42.8740 -75.0710 98° East 399 459 16,800 -2,093 Descending FlightAware ADS-B
Mon 12:24:21 AM 42.8640 -74.9710 98° East 386 444 15,700 -1,500 Descending FlightAware ADS-B
Mon 12:25:05 AM 42.8550 -74.8700 97° East 363 418 14,700 -1,429 Descending FlightAware ADS-B
Mon 12:25:45 AM 42.8470 -74.7830 97° East 352 405 13,700 -1,769 Descending FlightAware ADS-B
Mon 12:26:23 AM 42.8390 -74.6970 97° East 350 403 12,400 -1,260 Descending FlightAware ADS-B
Mon 12:27:25 AM 42.8280 -74.5760 97° East 352 405 11,600 -485 Descending FlightAware ADS-B
Mon 12:28:02 AM 42.8220 -74.5070 97° East 352 405 11,600 -973 Level FlightAware ADS-B
Mon 12:28:39 AM 42.8103 -74.4242 97° East 311 358 10,400 -1,658 Descending Boston Center
Mon 12:29:18 AM 42.7967 -74.3728 110° East 316 364 9,500 -1,394 Descending Boston Center
Mon 12:30:18 AM 42.7653 -74.2472 109° East 316 364 8,100 -1,550 Descending Boston Center
Mon 12:31:18 AM 42.7358 -74.1306 109° East 306 352 6,400 -1,488 Descending Boston Center
Mon 12:32:19 AM 42.7122 -74.0339 108° East 306 352 5,100 -1,400 Descending Boston Center
Mon 12:33:18 AM 42.6886 -73.9314 107° East 301 346 3,600 -1,261 Descending Boston Center
Mon 12:34:18 AM 42.6669 -73.8378 107° East 278 320 2,600 -750 Descending Boston Center
Mon 12:35:18 AM 42.6639 -73.7531 93° East 262 302 2,100 -500 Descending Boston Center

Login

Don't have an account? Register now (free) for customized features, flight alerts, and more!